Mechanicsville, VA

8:52 PM EDT on September 24, 2016 (GMT -0400)
Travellers Run | | Change Station

Elev 174 ft 37.60 °N, 77.33 °W | Updated 2 minutes ago

Mostly Cloudy
Mostly Cloudy
69.5 °F
Feels Like 69.5 °F
N
0.0
Wind Variable Wind from North
Gusts 1.2 mph

Today
High -- | Low -- °F
--% Chance of Precip.
Yesterday
High -- | Low -- °F
Precip. -- in
Pressure 30.09 in
Visibility 9.0 miles
Clouds Mostly Cloudy 3900 ft
Dew Point 66 °F
Humidity 88%
Rainfall 0.00 in
Snow Depth Not available.
6:59 AM 7:02 PM
Waning Crescent, 33% visible
METAR KOFP 242354Z AUTO VRB03KT 9SM BKN039 21/18 A3010 RMK AO2 SLP190 T02110178 10289 20211 51014
Pressure 30.09 in
Visibility 9.0 miles
Clouds Mostly Cloudy 3900 ft
Dew Point 66 °F
Humidity 88%
Rainfall 0.00 in
Snow Depth Not available.
6:59 AM 7:02 PM
Waning Crescent, 33% visible
METAR KOFP 242354Z AUTO VRB03KT 9SM BKN039 21/18 A3010 RMK AO2 SLP190 T02110178 10289 20211 51014

10-Day Weather Forecast

Almanac

Astronomy

Sep. 24, 2016 Rise Set
Actual Time
Civil Twilight
Nautical Twilight
Astronomical Twilight
Moon
Length of Visible Light
Length of Day
Tomorrow will be .
, % of the Moon is Illuminated

Today's Extremes

State Highs State Lows

Community

WunderPhotos

Upload Photos

1,941,504 photos uploaded!

WunderBlog® & News

Nearby

Air Quality

  Air Quality AQ Index Pollutant
Not available.

Snow Depth

Station Depth Elevation

Earthquake Activity

City Distance Mag. Time & Date
Minimum magnitude displayed is 2.5.

Coastal Water Temperatures

Place Temperature

Stations

Nearby Weather Stations

Station Location Temp. Windchill Dew Point Humidity Wind Precip. Elev Updated Type
                   

Watches & Warnings

There are currently no watches in effect.